createdAt,value
2017-03-17T00:00:39.684Z,1010.17
2017-03-17T00:01:50.666Z,1010.15
2017-03-17T00:03:01.850Z,1010.13
2017-03-17T00:04:12.898Z,1010.14
2017-03-17T00:05:24.122Z,1010.13
2017-03-17T00:06:35.114Z,1010.11
2017-03-17T00:07:46.098Z,1010.07
2017-03-17T00:08:57.082Z,1010.1
2017-03-17T00:10:08.063Z,1010.06
2017-03-17T00:11:19.068Z,1010.06
2017-03-17T00:12:30.054Z,1010.06
2017-03-17T00:13:41.294Z,1010.09
2017-03-17T00:14:52.275Z,1010.08
2017-03-17T00:16:03.262Z,1010.11
2017-03-17T00:17:14.260Z,1010.1
2017-03-17T00:18:25.245Z,1010.08
2017-03-17T00:19:36.239Z,1010.12
2017-03-17T00:20:47.221Z,1010.08
2017-03-17T00:21:58.195Z,1010.08
2017-03-17T00:23:09.172Z,1010.03
2017-03-17T00:24:20.206Z,1010.02
2017-03-17T00:25:31.398Z,1010.03
2017-03-17T00:26:42.386Z,1010.02
2017-03-17T00:27:53.779Z,1010.05
2017-03-17T00:29:04.764Z,1010.03
2017-03-17T00:30:15.747Z,1010.01
2017-03-17T00:31:26.731Z,1010.01
2017-03-17T00:32:37.718Z,1009.98
2017-03-17T00:33:48.706Z,1009.97
2017-03-17T00:34:59.880Z,1009.93
2017-03-17T00:36:10.918Z,1009.93
2017-03-17T00:37:22.109Z,1009.88
2017-03-17T00:38:33.287Z,1009.87
2017-03-17T00:39:44.292Z,1009.86
2017-03-17T00:40:55.293Z,1009.82
2017-03-17T00:42:06.287Z,1009.83
2017-03-17T00:43:17.278Z,1009.86
2017-03-17T00:44:28.268Z,1009.84
2017-03-17T00:45:39.456Z,1009.82
2017-03-17T00:46:50.529Z,1009.83
2017-03-17T00:48:01.520Z,1009.8
2017-03-17T00:49:12.508Z,1009.85
2017-03-17T00:50:23.488Z,1009.85
2017-03-17T00:51:34.471Z,1009.88
2017-03-17T00:52:45.459Z,1009.92
2017-03-17T00:53:56.447Z,1009.9
2017-03-17T00:55:07.428Z,1009.95
2017-03-17T00:56:18.464Z,1009.92
2017-03-17T00:57:29.453Z,1009.92
2017-03-17T00:58:40.448Z,1009.88
2017-03-17T00:59:51.443Z,1009.87
2017-03-17T01:01:02.421Z,1009.9
2017-03-17T01:02:13.413Z,1009.83
2017-03-17T01:03:24.425Z,1009.79
2017-03-17T01:04:35.621Z,1009.76
2017-03-17T01:05:46.611Z,1009.73
2017-03-17T01:06:57.650Z,1009.71
2017-03-17T01:08:08.836Z,1009.69
2017-03-17T01:09:19.821Z,1009.68
2017-03-17T01:10:30.827Z,1009.73
2017-03-17T01:11:41.817Z,1009.7
2017-03-17T01:12:52.996Z,1009.76
2017-03-17T01:14:03.987Z,1009.85
2017-03-17T01:15:14.974Z,1009.9
2017-03-17T01:16:26.167Z,1009.89
2017-03-17T01:17:37.165Z,1009.85
2017-03-17T01:18:48.175Z,1009.87
2017-03-17T01:19:59.154Z,1009.82
2017-03-17T01:21:10.142Z,1009.8
2017-03-17T01:22:21.135Z,1009.8
2017-03-17T01:23:32.130Z,1009.78
2017-03-17T01:24:43.775Z,1009.78
2017-03-17T01:25:54.964Z,1009.77
2017-03-17T01:27:05.945Z,1009.8
2017-03-17T01:28:16.938Z,1009.81
2017-03-17T01:29:27.971Z,1009.79
2017-03-17T01:30:38.959Z,1009.8
2017-03-17T01:31:49.944Z,1009.74
2017-03-17T01:33:00.923Z,1009.73
2017-03-17T01:34:11.973Z,1009.74
2017-03-17T01:35:22.971Z,1009.71
2017-03-17T01:36:34.164Z,1009.7
2017-03-17T01:37:45.362Z,1009.67
2017-03-17T01:38:56.374Z,1009.71
2017-03-17T01:40:07.363Z,1009.7
2017-03-17T01:41:18.545Z,1009.73
2017-03-17T01:42:29.742Z,1009.7
2017-03-17T01:43:40.734Z,1009.71
2017-03-17T01:44:51.773Z,1009.68
2017-03-17T01:46:02.966Z,1009.64
2017-03-17T01:47:14.154Z,1009.65
2017-03-17T01:48:25.142Z,1009.67
2017-03-17T01:49:36.128Z,1009.65
2017-03-17T01:50:47.146Z,1009.64
2017-03-17T01:51:58.131Z,1009.64
2017-03-17T01:53:09.111Z,1009.62
2017-03-17T01:54:20.099Z,1009.61
2017-03-17T01:55:31.092Z,1009.63
2017-03-17T01:56:42.278Z,1009.65
2017-03-17T01:57:53.276Z,1009.64
2017-03-17T01:59:04.265Z,1009.65
2017-03-17T02:00:15.271Z,1009.72
2017-03-17T02:01:26.469Z,1009.72
2017-03-17T02:02:37.460Z,1009.74
2017-03-17T02:03:48.451Z,1009.78
2017-03-17T02:04:59.635Z,1009.78
2017-03-17T02:06:10.620Z,1009.78
2017-03-17T02:07:21.858Z,1009.76
2017-03-17T02:08:32.845Z,1009.72
2017-03-17T02:09:43.842Z,1009.73
2017-03-17T02:10:54.836Z,1009.72
2017-03-17T02:12:05.825Z,1009.76
2017-03-17T02:13:16.816Z,1009.75
2017-03-17T02:14:27.812Z,1009.72
2017-03-17T02:15:38.798Z,1009.61
2017-03-17T02:16:50.038Z,1009.6
2017-03-17T02:18:01.024Z,1009.65
2017-03-17T02:19:12.000Z,1009.66
2017-03-17T02:20:22.982Z,1009.65
2017-03-17T02:21:33.979Z,1009.58
2017-03-17T02:22:45.168Z,1009.55
2017-03-17T02:23:56.360Z,1009.52
2017-03-17T02:25:07.351Z,1009.5
2017-03-17T02:26:18.545Z,1009.5
2017-03-17T02:27:29.789Z,1009.46
2017-03-17T02:28:40.774Z,1009.5
2017-03-17T02:29:51.769Z,1009.45
2017-03-17T02:31:02.962Z,1009.46
2017-03-17T02:32:13.951Z,1009.45
2017-03-17T02:33:25.191Z,1009.5
2017-03-17T02:34:36.183Z,1009.48
2017-03-17T02:35:47.169Z,1009.43
2017-03-17T02:36:58.164Z,1009.43
2017-03-17T02:38:09.157Z,1009.45
2017-03-17T02:39:20.161Z,1009.48
2017-03-17T02:40:31.157Z,1009.47
2017-03-17T02:41:42.356Z,1009.41
2017-03-17T02:42:53.349Z,1009.36
2017-03-17T02:44:04.344Z,1009.36
2017-03-17T02:45:15.394Z,1009.32
2017-03-17T02:46:26.578Z,1009.34
2017-03-17T02:47:37.568Z,1009.34
2017-03-17T02:48:48.555Z,1009.29
2017-03-17T02:49:59.557Z,1009.3
2017-03-17T02:51:10.752Z,1009.34
2017-03-17T02:52:21.742Z,1009.35
2017-03-17T02:53:32.933Z,1009.35
2017-03-17T02:54:43.988Z,1009.35
2017-03-17T02:55:55.182Z,1009.3
2017-03-17T02:57:06.169Z,1009.35
2017-03-17T02:58:17.162Z,1009.38
2017-03-17T02:59:28.158Z,1009.36
2017-03-17T03:00:39.150Z,1009.38
2017-03-17T03:01:50.131Z,1009.36
2017-03-17T03:03:01.120Z,1009.33
2017-03-17T03:04:12.115Z,1009.32
2017-03-17T03:05:23.368Z,1009.3
2017-03-17T03:06:34.359Z,1009.31
2017-03-17T03:07:45.361Z,1009.36
2017-03-17T03:08:56.555Z,1009.37
2017-03-17T03:10:07.552Z,1009.35
2017-03-17T03:11:18.541Z,1009.31
2017-03-17T03:12:29.550Z,1009.34
2017-03-17T03:13:40.550Z,1009.32
2017-03-17T03:14:51.563Z,1009.33
2017-03-17T03:16:02.806Z,1009.28
2017-03-17T03:17:13.994Z,1009.29
2017-03-17T03:18:25.187Z,1009.28
2017-03-17T03:19:36.385Z,1009.22
2017-03-17T03:20:47.581Z,1009.25
2017-03-17T03:21:58.777Z,1009.25
2017-03-17T03:23:09.762Z,1009.26
2017-03-17T03:24:20.757Z,1009.22
2017-03-17T03:25:31.744Z,1009.21
2017-03-17T03:26:42.731Z,1009.16
2017-03-17T03:27:53.729Z,1009.16
2017-03-17T03:29:04.726Z,1009.18
2017-03-17T03:30:15.716Z,1009.12
2017-03-17T03:31:26.704Z,1009.18
2017-03-17T03:32:37.686Z,1009.13
2017-03-17T03:33:48.728Z,1009.17
2017-03-17T03:34:59.730Z,1009.18
2017-03-17T03:36:10.710Z,1009.14
2017-03-17T03:37:21.701Z,1009.22
2017-03-17T03:38:32.685Z,1009.31
2017-03-17T03:39:43.689Z,1009.29
2017-03-17T03:40:54.692Z,1009.29
2017-03-17T03:42:05.879Z,1009.3
2017-03-17T03:43:17.129Z,1009.34
2017-03-17T03:44:28.332Z,1009.35
2017-03-17T03:45:39.321Z,1009.32
2017-03-17T03:46:50.314Z,1009.33
2017-03-17T03:48:01.310Z,1009.37
2017-03-17T03:49:12.310Z,1009.36
2017-03-17T03:50:23.309Z,1009.39
2017-03-17T03:51:34.309Z,1009.42
2017-03-17T03:52:45.304Z,1009.41
2017-03-17T03:53:56.556Z,1009.44
2017-03-17T03:55:07.567Z,1009.44
2017-03-17T03:56:18.559Z,1009.44
2017-03-17T03:57:29.541Z,1009.46
2017-03-17T03:58:40.542Z,1009.45
2017-03-17T03:59:51.544Z,1009.47
2017-03-17T04:01:02.741Z,1009.43
2017-03-17T04:02:13.934Z,1009.46
2017-03-17T04:03:24.920Z,1009.45
2017-03-17T04:04:35.981Z,1009.44
2017-03-17T04:05:47.171Z,1009.48
2017-03-17T04:06:58.161Z,1009.52
2017-03-17T04:08:09.153Z,1009.51
2017-03-17T04:09:20.552Z,1009.52
2017-03-17T04:10:31.544Z,1009.54
2017-03-17T04:11:42.540Z,1009.48
2017-03-17T04:12:53.534Z,1009.49
2017-03-17T04:14:04.531Z,1009.5
2017-03-17T04:15:15.522Z,1009.53
2017-03-17T04:16:26.712Z,1009.49
2017-03-17T04:17:37.706Z,1009.51
2017-03-17T04:18:48.740Z,1009.49
2017-03-17T04:19:59.759Z,1009.47
2017-03-17T04:21:10.951Z,1009.5
2017-03-17T04:22:21.997Z,1009.46
2017-03-17T04:23:32.991Z,1009.47
2017-03-17T04:24:44.197Z,1009.45
2017-03-17T04:25:55.193Z,1009.48
2017-03-17T04:27:06.184Z,1009.47
2017-03-17T04:28:17.169Z,1009.46
2017-03-17T04:29:28.183Z,1009.47
2017-03-17T04:30:39.187Z,1009.44
2017-03-17T04:31:50.676Z,1009.51
2017-03-17T04:33:01.678Z,1009.48
2017-03-17T04:34:12.680Z,1009.42
2017-03-17T04:35:23.883Z,1009.44
2017-03-17T04:36:35.074Z,1009.42
2017-03-17T04:37:46.297Z,1009.46
2017-03-17T04:38:57.294Z,1009.49
2017-03-17T04:40:08.291Z,1009.41
2017-03-17T04:41:19.293Z,1009.46
2017-03-17T04:42:30.332Z,1009.51
2017-03-17T04:43:41.322Z,1009.49
2017-03-17T04:44:52.330Z,1009.49
2017-03-17T04:46:03.338Z,1009.46
2017-03-17T04:47:14.330Z,1009.47
2017-03-17T04:48:25.325Z,1009.43
2017-03-17T04:49:36.328Z,1009.51
2017-03-17T04:50:47.329Z,1009.44
2017-03-17T04:51:58.321Z,1009.44
2017-03-17T04:53:09.585Z,1009.43
2017-03-17T04:54:20.781Z,1009.41
2017-03-17T04:55:31.770Z,1009.39
2017-03-17T04:56:42.754Z,1009.36
2017-03-17T04:57:53.739Z,1009.36
2017-03-17T04:59:04.924Z,1009.34
2017-03-17T05:00:15.916Z,1009.32
2017-03-17T05:01:27.114Z,1009.26
2017-03-17T05:02:38.306Z,1009.31
2017-03-17T05:03:49.309Z,1009.26
2017-03-17T05:05:00.750Z,1009.25
2017-03-17T05:06:11.733Z,1009.24
2017-03-17T05:07:22.725Z,1009.23
2017-03-17T05:08:33.917Z,1009.18
2017-03-17T05:09:44.903Z,1009.2
2017-03-17T05:10:56.090Z,1009.16
2017-03-17T05:12:07.079Z,1009.15
2017-03-17T05:13:18.260Z,1009.18
2017-03-17T05:14:29.305Z,1009.17
2017-03-17T05:15:40.298Z,1009.16
2017-03-17T05:16:51.288Z,1009.13
2017-03-17T05:18:02.269Z,1009.15
2017-03-17T05:19:13.470Z,1009.12
2017-03-17T05:20:24.454Z,1009.11
2017-03-17T05:21:35.441Z,1009.09
2017-03-17T05:22:46.830Z,1009.06
2017-03-17T05:23:57.853Z,1009.05
2017-03-17T05:25:08.891Z,1009.08
2017-03-17T05:26:19.888Z,1009.1
2017-03-17T05:27:30.877Z,1009.08
2017-03-17T05:28:42.074Z,1009.09
2017-03-17T05:29:53.069Z,1009.04
2017-03-17T05:31:04.064Z,1009.07
2017-03-17T05:32:15.050Z,1009.1
2017-03-17T05:33:26.034Z,1009.13
2017-03-17T05:34:37.228Z,1009.11
2017-03-17T05:35:48.269Z,1009.13
2017-03-17T05:36:59.261Z,1009.1
2017-03-17T05:38:10.449Z,1009.12
2017-03-17T05:39:21.454Z,1009.12
2017-03-17T05:40:32.441Z,1009.12
2017-03-17T05:41:43.422Z,1009.16
2017-03-17T05:42:54.407Z,1009.16
2017-03-17T05:44:05.404Z,1009.18
2017-03-17T05:45:16.401Z,1009.23
2017-03-17T05:46:27.396Z,1009.26
2017-03-17T05:47:38.436Z,1009.26
2017-03-17T05:48:49.434Z,1009.3
2017-03-17T05:50:00.422Z,1009.35
2017-03-17T05:51:11.406Z,1009.43
2017-03-17T05:52:22.397Z,1009.36
2017-03-17T05:53:33.588Z,1009.36
2017-03-17T05:54:44.589Z,1009.35
2017-03-17T05:55:55.598Z,1009.41
2017-03-17T05:57:06.841Z,1009.44
2017-03-17T05:58:17.833Z,1009.39
2017-03-17T05:59:28.818Z,1009.41
2017-03-17T06:00:39.808Z,1009.33
2017-03-17T06:01:50.797Z,1009.37
2017-03-17T06:03:01.992Z,1009.38
2017-03-17T06:04:12.989Z,1009.45
2017-03-17T06:05:23.990Z,1009.41
2017-03-17T06:06:34.978Z,1009.48
2017-03-17T06:07:46.015Z,1009.53
2017-03-17T06:08:57.014Z,1009.5
2017-03-17T06:10:08.013Z,1009.54
2017-03-17T06:11:19.013Z,1009.55
2017-03-17T06:12:30.009Z,1009.52
2017-03-17T06:13:41.014Z,1009.54
2017-03-17T06:14:52.011Z,1009.56
2017-03-17T06:16:03.012Z,1009.61
2017-03-17T06:17:14.203Z,1009.62
2017-03-17T06:18:25.438Z,1009.56
2017-03-17T06:19:36.430Z,1009.52
2017-03-17T06:20:47.452Z,1009.55
2017-03-17T06:21:58.837Z,1009.51
2017-03-17T06:23:10.022Z,1009.56
2017-03-17T06:24:21.023Z,1009.6
2017-03-17T06:25:32.211Z,1009.58
2017-03-17T06:26:43.405Z,1009.6
2017-03-17T06:27:54.587Z,1009.59
2017-03-17T06:29:05.582Z,1009.57
2017-03-17T06:30:16.576Z,1009.6
2017-03-17T06:31:28.171Z,1009.59
2017-03-17T06:32:39.163Z,1009.65
2017-03-17T06:33:50.156Z,1009.67
2017-03-17T06:35:01.144Z,1009.66
2017-03-17T06:36:12.388Z,1009.73
2017-03-17T06:37:23.373Z,1009.71
2017-03-17T06:38:34.370Z,1009.77
2017-03-17T06:39:45.376Z,1009.71
2017-03-17T06:40:56.372Z,1009.75
2017-03-17T06:42:07.551Z,1009.8
2017-03-17T06:43:18.539Z,1009.78
2017-03-17T06:44:29.542Z,1009.8
2017-03-17T06:45:40.586Z,1009.85
2017-03-17T06:46:51.577Z,1009.83
2017-03-17T06:48:02.563Z,1009.89
2017-03-17T06:49:13.559Z,1009.95
2017-03-17T06:50:24.560Z,1009.97
2017-03-17T06:51:35.550Z,1010
2017-03-17T06:52:46.563Z,1009.99
2017-03-17T06:53:57.560Z,1010.02
2017-03-17T06:55:08.557Z,1009.98
2017-03-17T06:56:20.001Z,1009.96
2017-03-17T06:57:31.017Z,1009.99
2017-03-17T06:58:42.034Z,1010
2017-03-17T06:59:53.238Z,1010.06
2017-03-17T07:01:04.630Z,1010.06
2017-03-17T07:02:15.636Z,1010.08
2017-03-17T07:03:26.623Z,1010.11
2017-03-17T07:04:37.623Z,1010.16
2017-03-17T07:05:48.651Z,1010.11
2017-03-17T07:06:59.899Z,1010.16
2017-03-17T07:08:10.903Z,1010.24
2017-03-17T07:09:21.898Z,1010.3
2017-03-17T07:10:32.883Z,1010.29
2017-03-17T07:11:44.085Z,1010.3
2017-03-17T07:12:55.075Z,1010.27
2017-03-17T07:14:06.068Z,1010.25
2017-03-17T07:15:17.066Z,1010.31
2017-03-17T07:16:28.257Z,1010.33
2017-03-17T07:17:39.251Z,1010.33
2017-03-17T07:18:50.302Z,1010.35
2017-03-17T07:20:01.297Z,1010.4
2017-03-17T07:21:12.287Z,1010.33
2017-03-17T07:22:23.268Z,1010.43
2017-03-17T07:23:34.260Z,1010.41
2017-03-17T07:24:45.495Z,1010.44
2017-03-17T07:25:56.698Z,1010.4
2017-03-17T07:27:07.898Z,1010.47
2017-03-17T07:28:19.150Z,1010.52
2017-03-17T07:29:30.159Z,1010.53
2017-03-17T07:30:41.154Z,1010.54
2017-03-17T07:31:52.148Z,1010.58
2017-03-17T07:33:03.138Z,1010.63
2017-03-17T07:34:14.136Z,1010.6
2017-03-17T07:35:25.129Z,1010.62
2017-03-17T07:36:36.322Z,1010.58
2017-03-17T07:37:47.312Z,1010.57
2017-03-17T07:38:58.566Z,1010.63
2017-03-17T07:40:09.563Z,1010.66
2017-03-17T07:41:20.559Z,1010.66
2017-03-17T07:42:31.553Z,1010.63
2017-03-17T07:43:42.542Z,1010.69
2017-03-17T07:44:53.550Z,1010.62
2017-03-17T07:46:04.542Z,1010.64
2017-03-17T07:47:15.933Z,1010.67
2017-03-17T07:48:26.919Z,1010.64
2017-03-17T07:49:38.171Z,1010.68
2017-03-17T07:50:49.168Z,1010.67
2017-03-17T07:52:00.154Z,1010.67
2017-03-17T07:53:11.142Z,1010.69
2017-03-17T07:54:22.346Z,1010.64
2017-03-17T07:55:33.399Z,1010.71
2017-03-17T07:56:44.407Z,1010.7
2017-03-17T07:57:55.401Z,1010.66
2017-03-17T07:59:06.402Z,1010.71
2017-03-17T08:00:17.401Z,1010.71
2017-03-17T08:01:28.391Z,1010.68
2017-03-17T08:02:39.591Z,1010.67
2017-03-17T08:03:50.583Z,1010.71
2017-03-17T08:05:01.583Z,1010.73
2017-03-17T08:06:12.779Z,1010.68
2017-03-17T08:07:23.814Z,1010.64
2017-03-17T08:08:34.806Z,1010.55
2017-03-17T08:09:45.802Z,1010.55
2017-03-17T08:10:56.798Z,1010.52
2017-03-17T08:12:07.996Z,1010.48
2017-03-17T08:13:18.983Z,1010.54
2017-03-17T08:14:29.976Z,1010.58
2017-03-17T08:15:40.974Z,1010.63
2017-03-17T08:16:52.013Z,1010.56
2017-03-17T08:18:03.003Z,1010.55
2017-03-17T08:19:14.002Z,1010.56
2017-03-17T08:20:24.998Z,1010.52
2017-03-17T08:21:35.987Z,1010.62
2017-03-17T08:22:46.979Z,1010.63
2017-03-17T08:23:57.975Z,1010.63
2017-03-17T08:25:08.970Z,1010.69
2017-03-17T08:26:20.160Z,1010.67
2017-03-17T08:27:31.460Z,1010.6
2017-03-17T08:28:42.662Z,1010.73
2017-03-17T08:29:53.647Z,1010.78
2017-03-17T08:31:04.673Z,1010.83
2017-03-17T08:32:15.869Z,1010.79
2017-03-17T08:33:26.862Z,1010.77
2017-03-17T08:34:37.856Z,1010.76
2017-03-17T08:35:48.850Z,1010.73
2017-03-17T08:36:59.841Z,1010.71
2017-03-17T08:38:11.085Z,1010.69
2017-03-17T08:39:22.090Z,1010.64
2017-03-17T08:40:33.078Z,1010.6
2017-03-17T08:41:44.068Z,1010.68
2017-03-17T08:42:55.261Z,1010.66
2017-03-17T08:44:06.259Z,1010.76
2017-03-17T08:45:17.447Z,1010.75
2017-03-17T08:46:28.642Z,1010.67
2017-03-17T08:47:39.841Z,1010.66
2017-03-17T08:48:50.835Z,1010.81
2017-03-17T08:50:02.085Z,1010.86
2017-03-17T08:51:13.071Z,1010.72
2017-03-17T08:52:24.062Z,1010.76
2017-03-17T08:53:35.056Z,1010.77
2017-03-17T08:54:46.057Z,1010.81
2017-03-17T08:55:57.260Z,1010.9
2017-03-17T08:57:08.284Z,1010.92
2017-03-17T08:58:19.284Z,1010.85
2017-03-17T08:59:30.542Z,1010.73
2017-03-17T09:00:41.755Z,1010.78
2017-03-17T09:01:52.755Z,1010.72
2017-03-17T09:03:03.771Z,1010.74
2017-03-17T09:04:15.176Z,1010.69
2017-03-17T09:05:26.186Z,1010.72
2017-03-17T09:06:37.391Z,1010.62
2017-03-17T09:07:48.593Z,1010.64
2017-03-17T09:08:59.804Z,1011.06
2017-03-17T09:10:11.068Z,1010.81
2017-03-17T09:11:22.078Z,1010.87
2017-03-17T09:12:33.079Z,1010.67
2017-03-17T09:13:44.115Z,1010.67
2017-03-17T09:14:55.116Z,1010.63
2017-03-17T09:16:06.324Z,1010.71
2017-03-17T09:17:17.328Z,1010.75
2017-03-17T09:18:28.326Z,1010.82
2017-03-17T09:19:39.567Z,1010.81
2017-03-17T09:20:50.571Z,1010.84
2017-03-17T09:22:01.810Z,1010.77
2017-03-17T09:23:12.810Z,1010.71
2017-03-17T09:24:23.825Z,1010.81
2017-03-17T09:25:34.836Z,1010.82
2017-03-17T09:26:46.043Z,1010.88
2017-03-17T09:27:57.051Z,1010.69
2017-03-17T09:29:08.270Z,1010.74
2017-03-17T09:30:19.293Z,1010.83
2017-03-17T09:31:30.297Z,1010.81
2017-03-17T09:32:41.352Z,1010.98
2017-03-17T09:33:52.578Z,1011.49
2017-03-17T09:35:03.593Z,1012.25
2017-03-17T09:36:14.801Z,1013.61
2017-03-17T09:37:25.810Z,1015.62
2017-03-17T09:38:36.827Z,1016.13
2017-03-17T09:39:47.842Z,1013.37
2017-03-17T09:40:58.853Z,1012.04
2017-03-17T09:42:10.518Z,1011.42
2017-03-17T09:43:21.533Z,1011.06
2017-03-17T09:44:32.545Z,1010.95
2017-03-17T09:45:43.762Z,1011.04
2017-03-17T09:46:54.775Z,1011
2017-03-17T09:48:05.777Z,1011.12
2017-03-17T09:49:16.786Z,1011.03
2017-03-17T09:50:27.799Z,1010.99
2017-03-17T09:51:39.011Z,1010.83
2017-03-17T09:52:50.476Z,1010.99
2017-03-17T09:54:01.484Z,1010.93
2017-03-17T09:55:12.498Z,1010.95
2017-03-17T09:56:23.499Z,1011.13
2017-03-17T09:57:34.501Z,1011.12
2017-03-17T09:58:45.555Z,1011.32
2017-03-17T09:59:56.766Z,1011.23
2017-03-17T10:01:07.766Z,1011.31
2017-03-17T10:02:18.799Z,1011.12
2017-03-17T10:03:29.801Z,1011.04
2017-03-17T10:04:40.812Z,1010.87
2017-03-17T10:05:52.054Z,1010.78
2017-03-17T10:07:03.457Z,1010.91
2017-03-17T10:08:14.465Z,1010.93
2017-03-17T10:09:25.676Z,1011.05
2017-03-17T10:10:36.929Z,1010.99
2017-03-17T10:11:48.137Z,1010.96
2017-03-17T10:12:59.138Z,1011.09
2017-03-17T10:14:10.339Z,1010.97
2017-03-17T10:15:21.347Z,1011.02
2017-03-17T10:16:32.741Z,1011.06
2017-03-17T10:17:43.974Z,1011.15
2017-03-17T10:18:54.971Z,1011.07
2017-03-17T10:20:06.287Z,1011.14
2017-03-17T10:21:17.291Z,1011.14
2017-03-17T10:22:28.304Z,1011.17
2017-03-17T10:23:39.308Z,1011.13
2017-03-17T10:24:50.314Z,1011.08
2017-03-17T10:26:01.320Z,1011.07
2017-03-17T10:27:12.316Z,1011.02
2017-03-17T10:28:23.317Z,1011.11
2017-03-17T10:29:34.326Z,1011.04
2017-03-17T10:30:45.573Z,1011.05
2017-03-17T10:31:56.576Z,1011
2017-03-17T10:33:07.583Z,1010.99
2017-03-17T10:34:18.586Z,1010.94
2017-03-17T10:35:29.584Z,1010.86
2017-03-17T10:36:40.587Z,1010.82
2017-03-17T10:37:51.794Z,1010.86
2017-03-17T10:39:02.792Z,1010.75
2017-03-17T10:40:14.005Z,1010.76
2017-03-17T10:41:25.248Z,1010.76
2017-03-17T10:42:36.239Z,1010.75
2017-03-17T10:43:47.234Z,1010.8
2017-03-17T10:44:58.243Z,1010.79
2017-03-17T10:46:09.250Z,1010.78
2017-03-17T10:47:20.449Z,1010.8
2017-03-17T10:48:31.649Z,1010.76
2017-03-17T10:49:42.653Z,1010.75
2017-03-17T10:50:53.651Z,1010.74
2017-03-17T10:52:04.852Z,1010.83
2017-03-17T10:53:15.848Z,1010.72
2017-03-17T10:54:26.859Z,1010.76
2017-03-17T10:55:38.055Z,1010.76
2017-03-17T10:56:49.052Z,1010.82
2017-03-17T10:58:00.059Z,1010.82
2017-03-17T10:59:11.307Z,1010.78
2017-03-17T11:00:22.329Z,1010.76
2017-03-17T11:01:33.323Z,1010.79
2017-03-17T11:02:44.555Z,1010.83
2017-03-17T11:03:55.554Z,1010.87
2017-03-17T11:05:06.577Z,1010.89
2017-03-17T11:06:17.574Z,1010.99
2017-03-17T11:07:28.566Z,1010.89
2017-03-17T11:08:39.845Z,1010.93
2017-03-17T11:09:50.857Z,1010.94
2017-03-17T11:11:01.854Z,1010.93
2017-03-17T11:12:13.048Z,1010.97
2017-03-17T11:13:24.048Z,1010.93
2017-03-17T11:14:35.049Z,1010.96
2017-03-17T11:15:46.040Z,1010.96
2017-03-17T11:16:57.029Z,1010.96
2017-03-17T11:18:08.023Z,1011
2017-03-17T11:19:19.274Z,1010.99
2017-03-17T11:20:30.473Z,1010.98
2017-03-17T11:21:41.673Z,1010.94
2017-03-17T11:22:52.691Z,1011.04
2017-03-17T11:24:03.689Z,1011.07
2017-03-17T11:25:14.694Z,1011.09
2017-03-17T11:26:25.683Z,1011.07
2017-03-17T11:27:36.679Z,1011.04
2017-03-17T11:28:47.671Z,1011.01
2017-03-17T11:29:58.739Z,1011.02
2017-03-17T11:31:09.734Z,1011.01
2017-03-17T11:32:20.728Z,1011.01
2017-03-17T11:33:31.731Z,1011.03
2017-03-17T11:34:42.729Z,1011.06
2017-03-17T11:35:53.720Z,1010.97
2017-03-17T11:37:04.917Z,1010.91
2017-03-17T11:38:16.116Z,1010.9
2017-03-17T11:39:27.120Z,1010.92
2017-03-17T11:40:38.104Z,1010.94
2017-03-17T11:41:49.169Z,1010.94
2017-03-17T11:43:00.568Z,1010.93
2017-03-17T11:44:11.570Z,1010.96
2017-03-17T11:45:22.572Z,1010.95
2017-03-17T11:46:33.769Z,1010.9
2017-03-17T11:47:44.770Z,1010.84
2017-03-17T11:48:55.765Z,1010.9
2017-03-17T11:50:06.767Z,1010.88
2017-03-17T11:51:17.840Z,1010.82
2017-03-17T11:52:28.837Z,1010.83
2017-03-17T11:53:39.829Z,1010.78
2017-03-17T11:54:50.829Z,1010.84
2017-03-17T11:56:01.827Z,1010.85
2017-03-17T11:57:12.811Z,1010.81
2017-03-17T11:58:23.805Z,1010.85
2017-03-17T11:59:34.798Z,1010.82
2017-03-17T12:00:45.799Z,1010.81
2017-03-17T12:01:56.856Z,1010.78
2017-03-17T12:03:07.846Z,1010.74
2017-03-17T12:04:19.050Z,1010.68
2017-03-17T12:05:30.255Z,1010.7
2017-03-17T12:06:41.251Z,1010.66
2017-03-17T12:07:52.241Z,1010.68
2017-03-17T12:09:03.244Z,1010.64
2017-03-17T12:10:14.249Z,1010.66
2017-03-17T12:11:25.448Z,1010.57
2017-03-17T12:12:36.488Z,1010.61
2017-03-17T12:13:47.494Z,1010.55
2017-03-17T12:14:58.702Z,1010.49
2017-03-17T12:16:09.901Z,1010.55
2017-03-17T12:17:20.923Z,1010.45
2017-03-17T12:18:32.115Z,1010.4
2017-03-17T12:19:43.105Z,1010.44
2017-03-17T12:20:54.096Z,1010.45
2017-03-17T12:22:05.079Z,1010.43
2017-03-17T12:23:16.079Z,1010.32
2017-03-17T12:24:27.322Z,1010.35
2017-03-17T12:25:38.331Z,1010.4
2017-03-17T12:26:49.327Z,1010.24
2017-03-17T12:28:00.317Z,1010.3
2017-03-17T12:29:11.322Z,1010.31
2017-03-17T12:30:22.342Z,1010.35
2017-03-17T12:31:33.338Z,1010.41
2017-03-17T12:32:44.543Z,1010.39
2017-03-17T12:33:55.585Z,1010.36
2017-03-17T12:35:06.580Z,1010.27
2017-03-17T12:36:17.566Z,1010.26
2017-03-17T12:37:28.767Z,1010.22
2017-03-17T12:38:39.752Z,1010.23
2017-03-17T12:39:50.745Z,1010.24
2017-03-17T12:41:01.949Z,1010.26
2017-03-17T12:42:13.142Z,1010.27
2017-03-17T12:43:24.137Z,1010.27
2017-03-17T12:44:35.189Z,1010.29
2017-03-17T12:45:46.383Z,1010.27
2017-03-17T12:46:57.371Z,1010.28
2017-03-17T12:48:08.358Z,1010.28
2017-03-17T12:49:19.357Z,1010.24
2017-03-17T12:50:30.766Z,1010.22
2017-03-17T12:51:42.168Z,1010.21
2017-03-17T12:52:53.162Z,1010.15
2017-03-17T12:54:04.158Z,1010.2
2017-03-17T12:55:15.201Z,1010.22
2017-03-17T12:56:26.204Z,1010.17
2017-03-17T12:57:37.398Z,1010.18
2017-03-17T12:58:48.395Z,1010.07
2017-03-17T12:59:59.398Z,1010.13
2017-03-17T13:01:10.391Z,1010.11
2017-03-17T13:02:21.380Z,1010.2
2017-03-17T13:03:32.364Z,1010.14
2017-03-17T13:04:43.401Z,1010.16
2017-03-17T13:05:54.396Z,1010.21
2017-03-17T13:07:05.397Z,1010.18
2017-03-17T13:08:16.392Z,1010.15
2017-03-17T13:09:27.394Z,1010.13
2017-03-17T13:10:38.382Z,1010.21
2017-03-17T13:11:49.378Z,1010.16
2017-03-17T13:13:00.629Z,1010.15
2017-03-17T13:14:11.635Z,1010.09
2017-03-17T13:15:22.635Z,1010.05
2017-03-17T13:16:33.634Z,1010.03
2017-03-17T13:17:44.629Z,1010
2017-03-17T13:18:55.631Z,1009.99
2017-03-17T13:20:06.625Z,1010.02
2017-03-17T13:21:17.622Z,1010.13
2017-03-17T13:22:29.067Z,1010.11
2017-03-17T13:23:40.062Z,1010.11
2017-03-17T13:24:51.069Z,1010.06
2017-03-17T13:26:02.474Z,1010.06
2017-03-17T13:27:13.662Z,1010.09
2017-03-17T13:28:24.861Z,1010
2017-03-17T13:29:35.861Z,1009.89
2017-03-17T13:30:46.847Z,1009.97
2017-03-17T13:31:57.879Z,1010.01
2017-03-17T13:33:08.931Z,1010.01
2017-03-17T13:34:19.937Z,1009.97
2017-03-17T13:35:30.923Z,1010
2017-03-17T13:36:41.917Z,1010.05
2017-03-17T13:37:52.912Z,1010.03
2017-03-17T13:39:03.925Z,1010.09
2017-03-17T13:40:15.133Z,1010.08
2017-03-17T13:41:26.131Z,1010.15
2017-03-17T13:42:37.118Z,1009.99
2017-03-17T13:43:48.376Z,1010.02
2017-03-17T13:44:59.574Z,1010.06
2017-03-17T13:46:10.571Z,1010.04
2017-03-17T13:47:21.582Z,1010.02
2017-03-17T13:48:32.573Z,1010.06
2017-03-17T13:49:43.779Z,1010.1
2017-03-17T13:50:54.800Z,1010.06
2017-03-17T13:52:05.822Z,1010.06
2017-03-17T13:53:16.813Z,1010.03
2017-03-17T13:54:28.011Z,1010.03
2017-03-17T13:55:39.054Z,1010.04
2017-03-17T13:56:50.253Z,1010.08
2017-03-17T13:58:01.254Z,1010.06
2017-03-17T13:59:12.265Z,1010.09
2017-03-17T14:00:23.255Z,1009.97
2017-03-17T14:01:34.247Z,1009.99
2017-03-17T14:02:45.232Z,1010
2017-03-17T14:03:56.227Z,1009.97
2017-03-17T14:05:07.276Z,1010.03
2017-03-17T14:06:18.261Z,1009.98
2017-03-17T14:07:29.258Z,1010.02
2017-03-17T14:08:40.458Z,1009.88
2017-03-17T14:09:51.667Z,1009.87
2017-03-17T14:11:02.675Z,1009.78
2017-03-17T14:12:13.664Z,1009.7
2017-03-17T14:13:24.658Z,1009.76
2017-03-17T14:14:35.854Z,1009.74
2017-03-17T14:15:47.303Z,1009.69
2017-03-17T14:16:58.301Z,1009.63
2017-03-17T14:18:09.299Z,1009.66
2017-03-17T14:19:20.315Z,1009.63
2017-03-17T14:20:31.312Z,1009.64
2017-03-17T14:21:42.507Z,1009.63
2017-03-17T14:22:53.497Z,1009.6